Pagina principale
METAR-TAF:

METAR-TAF

Aeroporti :

Aeroporto di Reus

Reus, Spagna

latitudine: 41-09N, longitudine: 001-10E, altezza: 71 m

Osservazione

Il bollettino è stato emesso 43 minuti fa, alle 09:30 UTC
Vento 2 kt da direzioni variabili
Temperature 14°C
Umidità 63%
Pressione 1019 hPa
Visibilità 10 km o più
nessuna nube inferiore a 1500 m e nessun cumulonembo

METAR: LERS 280930Z VRB02KT CAVOK 14/07 Q1019

Ora: 11:13 (10:13 UTC)

Previsione

Il bollettino è stato emesso 2 ore e 13 minuti fa, alle 08:00 UTC
Previsione valida dal 28 alle 09 UTC al 29 alle 09 UTC
Vento 4 kt da direzioni variabili
Visibilità 10 km o più
Poco nuvoloso ad un'altezza di 4500 ft
Evoluzione graduale
dal 28 alle 10 UTC al 28 alle 12 UTC
Vento 11 kt da ovest/nord-ovest
Evoluzione graduale
dal 28 alle 16 UTC al 28 alle 18 UTC
Vento 4 kt da direzioni variabili

TAF: LERS 280800Z 2809/2909 VRB04KT 9999 FEW045 TX19/2812Z TN07/2906Z BECMG 2810/2812 29011KT BECMG 2816/2818 VRB04KT

Osservazioni e previsioni meteorologiche di più di 4000 aeroporti (messaggi METAR e TAF).

Le stazioni disponibili sono rappresentate dai dischi gialli e rossi sulla carta.

Puntare il mouse per vedere il nome della stazione.

Clicca sopra per visualizzare le osservazioni e previsioni meteorologiche.

Per cambiare la mappa : fare clic sui pulsanti verdi con una croce nera per ingrandire, il pulsante verde con un trattino per diminuire, o sulla freccia verde per le mappe adiacenti.


METAR-TAF: